createdAt,value
2018-08-09T00:01:07.827Z,18.27
2018-08-09T00:03:36.091Z,23.30
2018-08-09T00:06:04.285Z,21.70
2018-08-09T00:08:32.770Z,21.10
2018-08-09T00:11:01.532Z,22.37
2018-08-09T00:13:29.707Z,24.70
2018-08-09T00:15:58.297Z,25.37
2018-08-09T00:20:58.723Z,21.83
2018-08-09T00:23:26.938Z,21.50
2018-08-09T00:25:55.166Z,21.97
2018-08-09T00:28:23.384Z,18.03
2018-08-09T00:30:51.563Z,16.33
2018-08-09T00:33:20.309Z,19.03
2018-08-09T00:35:48.500Z,24.77
2018-08-09T00:38:17.018Z,27.73
2018-08-09T00:40:45.228Z,23.80
2018-08-09T00:43:14.040Z,22.00
2018-08-09T00:45:42.516Z,20.17
2018-08-09T00:48:10.984Z,21.80
2018-08-09T00:50:39.424Z,23.53
2018-08-09T00:53:08.572Z,23.07
2018-08-09T00:55:36.754Z,20.70
2018-08-09T00:58:05.265Z,21.63
2018-08-09T01:00:33.923Z,22.73
2018-08-09T01:03:02.151Z,22.70
2018-08-09T01:05:30.628Z,22.67
2018-08-09T01:07:59.169Z,29.50
2018-08-09T01:10:27.412Z,22.93
2018-08-09T01:12:55.641Z,25.27
2018-08-09T01:15:23.816Z,18.50
2018-08-09T01:17:52.121Z,27.00
2018-08-09T01:20:20.295Z,26.40
2018-08-09T01:22:49.329Z,25.80
2018-08-09T01:25:17.535Z,21.17
2018-08-09T01:27:46.040Z,21.57
2018-08-09T01:30:14.556Z,25.73
2018-08-09T01:32:42.898Z,21.43
2018-08-09T01:35:11.094Z,22.97
2018-08-09T01:37:39.328Z,27.40
2018-08-09T01:40:07.786Z,24.43
2018-08-09T01:42:53.535Z,24.23
2018-08-09T01:45:21.738Z,21.23
2018-08-09T01:47:50.506Z,24.00
2018-08-09T01:50:18.714Z,23.23
2018-08-09T01:52:47.212Z,19.10
2018-08-09T01:55:15.476Z,24.70
2018-08-09T01:57:44.339Z,24.30
2018-08-09T02:00:12.883Z,20.27
2018-08-09T02:02:41.140Z,21.00
2018-08-09T02:05:09.984Z,16.50
2018-08-09T02:07:38.224Z,21.30
2018-08-09T02:10:06.494Z,22.97
2018-08-09T02:12:35.317Z,19.93
2018-08-09T02:15:04.135Z,20.73
2018-08-09T02:17:32.596Z,21.60
2018-08-09T02:20:01.199Z,21.47
2018-08-09T02:22:29.747Z,24.77
2018-08-09T02:24:58.260Z,24.27
2018-08-09T02:27:26.453Z,23.00
2018-08-09T02:29:54.655Z,20.87
2018-08-09T02:32:22.860Z,23.03
2018-08-09T02:34:51.606Z,21.37
2018-08-09T02:37:20.052Z,25.33
2018-08-09T02:39:48.459Z,35.53
2018-08-09T02:42:17.251Z,34.53
2018-08-09T02:44:45.957Z,45.40
2018-08-09T02:47:14.465Z,43.07
2018-08-09T02:49:42.772Z,33.27
2018-08-09T02:52:11.296Z,26.40
2018-08-09T02:54:40.107Z,26.43
2018-08-09T02:57:08.604Z,29.40
2018-08-09T02:59:37.067Z,22.50
2018-08-09T03:02:05.323Z,27.60
2018-08-09T03:04:33.535Z,51.37
2018-08-09T03:07:01.708Z,31.13
2018-08-09T03:09:29.960Z,33.00
2018-08-09T03:11:58.508Z,27.07
2018-08-09T03:14:26.960Z,28.53
2018-08-09T03:16:58.094Z,31.47
2018-08-09T03:19:26.307Z,27.27
2018-08-09T03:21:54.869Z,22.97
2018-08-09T03:24:23.437Z,20.37
2018-08-09T03:26:52.070Z,64.27
2018-08-09T03:29:20.577Z,25.53
2018-08-09T03:31:49.007Z,22.63
2018-08-09T03:34:17.546Z,23.90
2018-08-09T03:36:46.054Z,35.67
2018-08-09T03:39:14.265Z,28.73
2018-08-09T03:41:42.436Z,24.57
2018-08-09T03:44:10.980Z,23.00
2018-08-09T03:46:39.165Z,27.57
2018-08-09T03:49:07.636Z,25.97
2018-08-09T03:51:36.185Z,22.50
2018-08-09T03:54:05.211Z,24.57
2018-08-09T03:56:33.393Z,23.70
2018-08-09T03:59:02.246Z,29.73
2018-08-09T04:01:30.453Z,28.53
2018-08-09T04:03:58.683Z,27.53
2018-08-09T04:06:26.891Z,25.03
2018-08-09T04:08:55.485Z,24.80
2018-08-09T04:11:23.972Z,26.27
2018-08-09T04:13:52.576Z,24.13
2018-08-09T04:16:21.090Z,22.30
2018-08-09T04:18:49.620Z,25.60
2018-08-09T04:21:17.861Z,23.17
2018-08-09T04:23:46.157Z,26.67
2018-08-09T04:26:14.378Z,19.83
2018-08-09T04:28:42.885Z,27.43
2018-08-09T04:31:11.161Z,24.20
2018-08-09T04:33:39.440Z,25.53
2018-08-09T04:36:07.852Z,23.17
2018-08-09T04:38:36.718Z,23.80
2018-08-09T04:41:05.293Z,24.87
2018-08-09T04:43:33.857Z,22.47
2018-08-09T04:46:02.342Z,25.93
2018-08-09T04:48:32.434Z,27.97
2018-08-09T04:51:00.620Z,31.50
2018-08-09T04:53:29.234Z,25.77
2018-08-09T04:55:57.471Z,24.47
2018-08-09T04:58:25.720Z,31.53
2018-08-09T05:00:54.470Z,23.37
2018-08-09T05:03:23.057Z,19.97
2018-08-09T05:05:51.534Z,24.50
2018-08-09T05:08:19.989Z,24.73
2018-08-09T05:10:48.543Z,20.87
2018-08-09T05:13:17.504Z,27.27
2018-08-09T05:15:46.239Z,22.03
2018-08-09T05:18:15.168Z,23.43
2018-08-09T05:20:43.488Z,24.37
2018-08-09T05:23:12.036Z,21.47
2018-08-09T05:25:40.263Z,27.03
2018-08-09T05:28:09.387Z,24.30
2018-08-09T05:30:38.187Z,39.50
2018-08-09T05:33:07.184Z,28.93
2018-08-09T05:35:35.745Z,26.47
2018-08-09T05:38:04.770Z,23.97
2018-08-09T05:40:33.641Z,21.93
2018-08-09T05:43:02.057Z,25.17
2018-08-09T05:45:30.843Z,24.60
2018-08-09T05:47:59.323Z,21.30
2018-08-09T05:50:27.825Z,24.63
2018-08-09T05:52:56.163Z,24.67
2018-08-09T05:55:24.455Z,25.20
2018-08-09T05:57:52.693Z,28.67
2018-08-09T06:00:22.068Z,24.13
2018-08-09T06:02:50.748Z,24.23
2018-08-09T06:05:19.264Z,19.97
2018-08-09T06:07:47.502Z,21.53
2018-08-09T06:10:16.133Z,21.30
2018-08-09T06:12:44.384Z,25.00
2018-08-09T06:15:12.748Z,19.50
2018-08-09T06:17:41.224Z,23.23
2018-08-09T06:20:09.527Z,22.33
2018-08-09T06:22:38.109Z,25.17
2018-08-09T06:25:06.971Z,24.70
2018-08-09T06:27:35.176Z,20.83
2018-08-09T06:30:04.345Z,19.57
2018-08-09T06:32:32.621Z,23.07
2018-08-09T06:35:01.083Z,22.10
2018-08-09T06:37:29.313Z,21.83
2018-08-09T06:39:57.531Z,20.20
2018-08-09T06:42:26.210Z,27.67
2018-08-09T06:44:54.668Z,21.23
2018-08-09T06:47:23.256Z,25.07
2018-08-09T06:49:51.859Z,23.60
2018-08-09T06:52:20.054Z,21.57
2018-08-09T06:54:49.356Z,18.93
2018-08-09T06:57:18.176Z,23.20
2018-08-09T06:59:46.650Z,22.87
2018-08-09T07:02:15.657Z,19.93
2018-08-09T07:04:44.692Z,24.80
2018-08-09T07:07:12.992Z,24.20
2018-08-09T07:09:41.237Z,17.77
2018-08-09T07:12:09.428Z,22.13
2018-08-09T07:14:37.608Z,24.20
2018-08-09T07:17:05.816Z,25.23
2018-08-09T07:19:34.043Z,27.27
2018-08-09T07:22:02.865Z,19.37
2018-08-09T07:24:31.147Z,18.00
2018-08-09T07:26:59.700Z,25.80
2018-08-09T07:29:27.977Z,23.13
2018-08-09T07:31:56.182Z,33.07
2018-08-09T07:34:24.420Z,19.23
2018-08-09T07:36:52.929Z,20.00
2018-08-09T07:39:21.165Z,23.43
2018-08-09T07:41:49.382Z,23.07
2018-08-09T07:44:17.951Z,24.20
2018-08-09T07:46:46.516Z,20.40
2018-08-09T07:49:14.720Z,24.07
2018-08-09T07:51:43.270Z,22.77
2018-08-09T07:54:11.467Z,22.97
2018-08-09T07:56:39.861Z,21.47
2018-08-09T07:59:08.362Z,18.87
2018-08-09T08:01:36.915Z,15.70
2018-08-09T08:04:05.221Z,18.47
2018-08-09T08:06:33.716Z,21.63
2018-08-09T08:09:01.957Z,17.23
2018-08-09T08:11:30.198Z,21.93
2018-08-09T08:13:58.413Z,18.23
2018-08-09T08:16:26.621Z,16.13
2018-08-09T08:18:55.167Z,17.00
2018-08-09T08:21:23.501Z,19.37
2018-08-09T08:23:51.784Z,13.77
2018-08-09T08:26:20.095Z,16.40
2018-08-09T08:28:48.470Z,21.27
2018-08-09T08:31:17.354Z,17.07
2018-08-09T08:33:46.186Z,14.97
2018-08-09T08:36:14.873Z,24.07
2018-08-09T08:38:43.127Z,14.13
2018-08-09T08:41:11.327Z,18.70
2018-08-09T08:43:39.800Z,20.27
2018-08-09T08:46:08.015Z,28.43
2018-08-09T08:48:36.764Z,52.63
2018-08-09T08:51:05.207Z,16.30
2018-08-09T08:53:33.454Z,14.60
2018-08-09T08:56:01.761Z,14.97
2018-08-09T08:58:30.213Z,15.97
2018-08-09T09:00:58.578Z,12.67
2018-08-09T09:03:27.476Z,19.57
2018-08-09T09:05:56.232Z,65.97
2018-08-09T09:08:24.916Z,35.47
2018-08-09T09:10:54.355Z,29.93
2018-08-09T09:13:23.280Z,16.77
2018-08-09T09:15:51.525Z,16.10
2018-08-09T09:18:20.327Z,12.70
2018-08-09T09:20:48.531Z,55.77
2018-08-09T09:23:17.039Z,27.30
2018-08-09T09:25:45.551Z,20.47
2018-08-09T09:28:14.313Z,41.03
2018-08-09T09:30:42.483Z,17.10
2018-08-09T09:33:11.126Z,21.20
2018-08-09T09:35:39.577Z,23.30
2018-08-09T09:38:07.796Z,33.60
2018-08-09T09:40:36.749Z,25.33
2018-08-09T09:43:05.231Z,14.13
2018-08-09T09:45:33.453Z,12.70
2018-08-09T09:48:01.949Z,12.53
2018-08-09T09:50:30.195Z,12.53
2018-08-09T09:52:58.410Z,17.07
2018-08-09T09:55:27.047Z,17.80
2018-08-09T09:57:55.499Z,15.37
2018-08-09T10:00:28.629Z,11.73
2018-08-09T10:02:56.801Z,17.93
2018-08-09T10:05:25.421Z,14.63
2018-08-09T10:07:53.628Z,15.33
2018-08-09T10:10:21.837Z,12.17
2018-08-09T10:12:51.421Z,14.27
2018-08-09T10:15:19.788Z,17.90
2018-08-09T10:17:48.268Z,15.20
2018-08-09T10:20:16.485Z,13.20
2018-08-09T10:22:44.793Z,11.33
2018-08-09T10:25:13.129Z,9.20
2018-08-09T10:27:41.327Z,12.03
2018-08-09T10:30:09.615Z,13.27
2018-08-09T10:32:37.836Z,10.83
2018-08-09T10:35:06.031Z,11.23
2018-08-09T10:37:34.820Z,10.70
2018-08-09T10:40:03.472Z,12.53
2018-08-09T10:42:32.028Z,10.73
2018-08-09T10:45:00.530Z,12.10
2018-08-09T10:47:29.622Z,14.03
2018-08-09T10:49:59.396Z,10.73
2018-08-09T10:52:27.648Z,7.97
2018-08-09T10:54:55.904Z,11.47
2018-08-09T10:57:24.333Z,12.37
2018-08-09T10:59:52.917Z,11.23
2018-08-09T11:02:22.232Z,16.83
2018-08-09T11:04:50.448Z,13.83
2018-08-09T11:07:18.718Z,13.87
2018-08-09T11:09:47.263Z,11.07
2018-08-09T11:12:15.740Z,10.20
2018-08-09T11:14:44.308Z,9.17
2018-08-09T11:17:12.537Z,21.73
2018-08-09T11:19:41.105Z,15.30
2018-08-09T11:22:09.597Z,12.53
2018-08-09T11:24:38.940Z,13.20
2018-08-09T11:27:07.440Z,12.27
2018-08-09T11:29:36.017Z,16.43
2018-08-09T11:32:04.240Z,12.90
2018-08-09T11:34:33.488Z,16.33
2018-08-09T11:37:01.689Z,12.80
2018-08-09T11:39:29.932Z,11.90
2018-08-09T11:41:59.314Z,8.63
2018-08-09T11:44:27.892Z,11.23
2018-08-09T11:46:56.817Z,9.27
2018-08-09T11:49:25.087Z,9.07
2018-08-09T11:51:53.523Z,15.03
2018-08-09T11:54:21.953Z,12.80
2018-08-09T11:56:51.071Z,12.37
2018-08-09T11:59:19.260Z,9.40
2018-08-09T12:01:47.756Z,11.13
2018-08-09T12:04:15.869Z,9.43
2018-08-09T12:06:44.771Z,7.43
2018-08-09T12:09:13.069Z,9.90
2018-08-09T12:11:41.349Z,13.60
2018-08-09T12:14:09.573Z,14.77
2018-08-09T12:16:37.838Z,13.87
2018-08-09T12:19:06.671Z,12.17
2018-08-09T12:21:35.115Z,10.83
2018-08-09T12:24:03.836Z,14.77
2018-08-09T12:26:32.685Z,10.73
2018-08-09T12:29:01.761Z,15.77
2018-08-09T12:31:29.971Z,14.13
2018-08-09T12:33:58.574Z,16.63
2018-08-09T12:36:26.887Z,15.47
2018-08-09T12:38:55.163Z,11.47
2018-08-09T12:41:23.547Z,11.37
2018-08-09T12:43:51.939Z,9.93
2018-08-09T12:46:20.121Z,12.53
2018-08-09T12:48:48.648Z,9.57
2018-08-09T12:51:17.467Z,9.57
2018-08-09T12:53:45.905Z,9.60
2018-08-09T12:56:14.098Z,15.13
2018-08-09T12:58:42.589Z,11.97
2018-08-09T13:01:10.889Z,17.20
2018-08-09T13:03:39.353Z,10.20
2018-08-09T13:06:07.567Z,10.33
2018-08-09T13:08:35.806Z,11.67
2018-08-09T13:11:05.023Z,7.63
2018-08-09T13:13:33.793Z,12.57
2018-08-09T13:16:02.127Z,11.80
2018-08-09T13:18:31.504Z,17.10
2018-08-09T13:20:59.703Z,14.53
2018-08-09T13:23:28.240Z,14.60
2018-08-09T13:25:57.619Z,14.60
2018-08-09T13:28:26.205Z,22.47
2018-08-09T13:30:55.225Z,28.13
2018-08-09T13:33:24.441Z,15.53
2018-08-09T13:35:52.790Z,11.13
2018-08-09T13:38:22.880Z,12.97
2018-08-09T13:40:51.736Z,12.50
2018-08-09T13:43:21.912Z,8.00
2018-08-09T13:45:52.094Z,9.10
2018-08-09T13:48:21.407Z,7.47
2018-08-09T13:50:49.729Z,11.03
2018-08-09T13:53:20.439Z,10.93
2018-08-09T13:55:52.061Z,12.37
2018-08-09T13:58:20.621Z,9.17
2018-08-09T14:00:49.777Z,11.67
2018-08-09T14:03:18.160Z,13.20
2018-08-09T14:05:47.091Z,7.33
2018-08-09T14:08:15.342Z,9.70
2018-08-09T14:10:43.563Z,10.17
2018-08-09T14:13:11.756Z,14.10
2018-08-09T14:15:40.113Z,10.33
2018-08-09T14:18:08.341Z,8.47
2018-08-09T14:20:36.590Z,8.63
2018-08-09T14:23:05.895Z,7.60
2018-08-09T14:25:34.116Z,11.07
2018-08-09T14:28:04.328Z,9.13
2018-08-09T14:30:33.090Z,9.33
2018-08-09T14:33:02.205Z,8.43
2018-08-09T14:35:30.427Z,7.37
2018-08-09T14:37:58.725Z,11.93
2018-08-09T14:40:27.240Z,12.03
2018-08-09T14:42:55.643Z,8.47
2018-08-09T14:45:24.141Z,8.50
2018-08-09T14:47:53.152Z,12.10
2018-08-09T14:50:21.707Z,12.67
2018-08-09T14:52:51.635Z,7.33
2018-08-09T14:55:20.207Z,8.20
2018-08-09T14:57:49.617Z,13.17
2018-08-09T15:00:19.225Z,12.73
2018-08-09T15:02:48.021Z,9.00
2018-08-09T15:05:17.043Z,14.00
2018-08-09T15:07:45.477Z,11.53
2018-08-09T15:10:15.057Z,10.50
2018-08-09T15:12:43.981Z,11.27
2018-08-09T15:15:12.762Z,8.20
2018-08-09T15:17:42.709Z,15.20
2018-08-09T15:20:13.376Z,8.27
2018-08-09T15:22:42.274Z,8.40
2018-08-09T15:25:11.296Z,8.00
2018-08-09T15:27:39.937Z,8.77
2018-08-09T15:30:19.070Z,9.43
2018-08-09T15:32:47.752Z,14.07
2018-08-09T15:35:18.217Z,9.60
2018-08-09T15:37:46.919Z,11.20
2018-08-09T15:40:15.437Z,10.43
2018-08-09T15:42:43.729Z,21.77
2018-08-09T15:45:15.119Z,9.73
2018-08-09T15:47:43.516Z,7.53
2018-08-09T15:50:14.969Z,9.07
2018-08-09T15:52:43.208Z,8.37
2018-08-09T15:55:12.117Z,10.63
2018-08-09T15:57:40.693Z,11.40
2018-08-09T16:00:14.230Z,12.20
2018-08-09T16:02:43.226Z,9.03
2018-08-09T16:05:11.434Z,9.93
2018-08-09T16:07:39.706Z,13.20
2018-08-09T16:10:12.049Z,13.80
2018-08-09T16:12:40.967Z,6.53
2018-08-09T16:15:12.840Z,7.93
2018-08-09T16:17:42.021Z,10.77
2018-08-09T16:20:11.190Z,8.60
2018-08-09T16:22:39.722Z,9.17
2018-08-09T16:25:14.448Z,12.37
2018-08-09T16:27:42.783Z,12.37
2018-08-09T16:30:16.104Z,11.50
2018-08-09T16:32:44.495Z,7.27
2018-08-09T16:35:13.362Z,8.47
2018-08-09T16:37:42.343Z,10.40
2018-08-09T16:40:19.943Z,9.83
2018-08-09T16:42:48.273Z,7.63
2018-08-09T16:45:17.984Z,10.63
2018-08-09T16:47:46.815Z,8.20
2018-08-09T16:50:18.561Z,12.60
2018-08-09T16:52:47.744Z,8.57
2018-08-09T16:55:17.621Z,9.07
2018-08-09T16:57:45.925Z,8.97
2018-08-09T17:00:23.443Z,9.43
2018-08-09T17:02:53.592Z,7.40
2018-08-09T17:05:24.613Z,6.37
2018-08-09T17:07:53.295Z,7.27
2018-08-09T17:10:23.342Z,7.83
2018-08-09T17:12:52.018Z,10.87
2018-08-09T17:15:26.011Z,10.50
2018-08-09T17:17:55.522Z,8.57
2018-08-09T17:20:33.705Z,7.40
2018-08-09T17:23:04.514Z,8.47
2018-08-09T17:25:32.866Z,8.23
2018-08-09T17:28:01.680Z,11.27
2018-08-09T17:30:30.795Z,5.73
2018-08-09T17:33:00.193Z,7.50
2018-08-09T17:35:28.831Z,7.07
2018-08-09T17:37:57.054Z,9.40
2018-08-09T17:40:28.360Z,6.87
2018-08-09T17:42:58.360Z,7.70
2018-08-09T17:45:28.991Z,6.13
2018-08-09T17:47:57.666Z,9.47
2018-08-09T17:50:25.950Z,5.20
2018-08-09T17:52:56.700Z,4.57
2018-08-09T17:55:25.033Z,6.83
2018-08-09T17:57:53.749Z,19.77
2018-08-09T18:00:27.168Z,8.40
2018-08-09T18:02:55.518Z,4.83
2018-08-09T18:05:23.836Z,5.67
2018-08-09T18:07:52.756Z,5.10
2018-08-09T18:10:23.834Z,5.63
2018-08-09T18:12:52.642Z,4.70
2018-08-09T18:15:21.854Z,8.23
2018-08-09T18:17:50.408Z,7.33
2018-08-09T18:20:21.341Z,8.13
2018-08-09T18:22:49.593Z,5.23
2018-08-09T18:25:18.068Z,7.03
2018-08-09T18:27:46.422Z,5.80
2018-08-09T18:30:16.875Z,6.70
2018-08-09T18:32:45.441Z,7.17
2018-08-09T18:35:15.535Z,8.77
2018-08-09T18:37:45.378Z,4.23
2018-08-09T18:40:20.141Z,5.87
2018-08-09T18:42:49.167Z,5.03
2018-08-09T18:45:17.796Z,5.80
2018-08-09T18:47:46.337Z,6.10
2018-08-09T18:50:18.549Z,4.70
2018-08-09T18:52:46.828Z,5.80
2018-08-09T18:55:16.824Z,9.67
2018-08-09T18:57:45.479Z,5.97
2018-08-09T19:00:25.833Z,4.23
2018-08-09T19:02:54.388Z,8.43
2018-08-09T19:05:23.629Z,5.60
2018-08-09T19:07:52.349Z,16.63
2018-08-09T19:10:29.043Z,5.23
2018-08-09T19:12:57.722Z,6.70
2018-08-09T19:15:27.389Z,5.57
2018-08-09T19:17:56.952Z,4.83
2018-08-09T19:20:32.198Z,5.93
2018-08-09T19:23:02.778Z,4.83
2018-08-09T19:25:31.090Z,6.83
2018-08-09T19:27:59.774Z,5.87
2018-08-09T19:30:30.663Z,6.47
2018-08-09T19:32:59.485Z,6.83
2018-08-09T19:35:28.621Z,6.33
2018-08-09T19:37:56.973Z,6.23
2018-08-09T19:40:27.928Z,8.27
2018-08-09T19:42:57.300Z,6.53
2018-08-09T19:45:26.798Z,5.37
2018-08-09T19:47:55.747Z,6.60
2018-08-09T19:50:25.240Z,5.63
2018-08-09T19:52:54.017Z,6.47
2018-08-09T19:55:24.004Z,9.00
2018-08-09T19:57:52.717Z,4.60
2018-08-09T20:00:26.393Z,8.90
2018-08-09T20:02:55.133Z,5.77
2018-08-09T20:05:24.132Z,17.77
2018-08-09T20:07:52.446Z,6.03
2018-08-09T20:10:21.365Z,8.60
2018-08-09T20:12:49.979Z,4.23
2018-08-09T20:15:21.046Z,6.97
2018-08-09T20:17:50.074Z,8.03
2018-08-09T20:20:20.069Z,6.60
2018-08-09T20:22:49.093Z,9.87
2018-08-09T20:25:17.367Z,6.97
2018-08-09T20:27:46.510Z,8.00
2018-08-09T20:30:17.745Z,5.20
2018-08-09T20:32:46.874Z,7.67
2018-08-09T20:35:20.105Z,7.03
2018-08-09T20:37:49.060Z,5.00
2018-08-09T20:40:18.075Z,9.73
2018-08-09T20:42:47.311Z,7.70
2018-08-09T20:45:17.881Z,5.23
2018-08-09T20:47:46.515Z,5.93
2018-08-09T20:50:17.747Z,4.60
2018-08-09T20:52:46.883Z,5.97
2018-08-09T20:55:15.680Z,6.37
2018-08-09T20:57:45.867Z,5.40
2018-08-09T21:00:20.570Z,5.63
2018-08-09T21:02:50.090Z,5.70
2018-08-09T21:05:27.889Z,8.43
2018-08-09T21:07:57.202Z,5.97
2018-08-09T21:10:27.507Z,7.00
2018-08-09T21:12:56.149Z,6.53
2018-08-09T21:15:25.072Z,6.97
2018-08-09T21:17:53.271Z,8.90
2018-08-09T21:20:21.476Z,6.23
2018-08-09T21:22:50.215Z,5.77
2018-08-09T21:25:20.411Z,4.90
2018-08-09T21:27:49.024Z,4.40
2018-08-09T21:30:19.444Z,4.97
2018-08-09T21:32:48.138Z,6.47
2018-08-09T21:35:16.381Z,6.40
2018-08-09T21:37:44.877Z,5.03
2018-08-09T21:40:14.129Z,6.87
2018-08-09T21:42:42.612Z,7.07
2018-08-09T21:45:13.998Z,13.60
2018-08-09T21:47:42.805Z,9.53
2018-08-09T21:50:14.830Z,6.17
2018-08-09T21:52:43.116Z,5.80
2018-08-09T21:55:12.536Z,5.50
2018-08-09T21:57:41.559Z,4.63
2018-08-09T22:00:52.548Z,7.17
2018-08-09T22:03:23.613Z,3.77
2018-08-09T22:05:57.644Z,5.67
2018-08-09T22:08:31.774Z,4.63
2018-08-09T22:11:05.748Z,4.17
2018-08-09T22:13:40.416Z,12.33
2018-08-09T22:16:14.219Z,5.90
2018-08-09T22:18:48.024Z,4.50
2018-08-09T22:21:21.804Z,5.67
2018-08-09T22:23:51.085Z,4.50
2018-08-09T22:26:20.309Z,5.37
2018-08-09T22:28:48.558Z,4.57
2018-08-09T22:31:16.918Z,5.60
2018-08-09T22:33:46.028Z,2.60
2018-08-09T22:36:14.284Z,6.00
2018-08-09T22:38:42.574Z,4.33
2018-08-09T22:41:11.054Z,4.80
2018-08-09T22:43:39.678Z,3.50
2018-08-09T22:46:08.541Z,3.90
2018-08-09T22:48:36.852Z,6.33
2018-08-09T22:51:06.351Z,7.07
2018-08-09T22:53:35.997Z,3.60
2018-08-09T22:56:04.426Z,7.00
2018-08-09T22:58:32.796Z,7.73
2018-08-09T23:01:01.030Z,5.50
2018-08-09T23:03:30.123Z,4.40
2018-08-09T23:05:58.385Z,5.57
2018-08-09T23:08:26.785Z,2.93
2018-08-09T23:10:54.974Z,3.67
2018-08-09T23:13:27.955Z,6.03
2018-08-09T23:15:56.461Z,6.30
2018-08-09T23:18:24.840Z,3.00
2018-08-09T23:20:53.653Z,3.00
2018-08-09T23:23:21.966Z,5.63
2018-08-09T23:25:50.856Z,3.07
2018-08-09T23:28:19.084Z,3.30
2018-08-09T23:30:47.665Z,2.77
2018-08-09T23:33:20.356Z,3.23
2018-08-09T23:35:49.038Z,3.33
2018-08-09T23:38:17.345Z,2.67
2018-08-09T23:40:46.177Z,3.00
2018-08-09T23:43:14.660Z,2.27
2018-08-09T23:45:43.375Z,2.93
2018-08-09T23:48:12.259Z,1.73
2018-08-09T23:50:41.538Z,1.67
2018-08-09T23:53:09.801Z,4.57
2018-08-09T23:55:38.158Z,5.23
2018-08-09T23:58:06.432Z,1.87
